Aeroporto :
LOGIN :

Iscrizione | Disclaimer

   EN    FR    IT 

 










Sommario :    VFR   VFR Marginale   IFR   IFR Intensivo   IFR Molto Intensivo
Visibilità : 
Base nubi : 
>= 8 km
>= 3000ft
5 / 8 km
1000 / 3000 ft
1500m / 5 km
500 / 1000 ft
800 / 1500m
200 / 500 ft
< 800m
< 200 ft
Simboli :   Temporali  Nebbia  Neve Forte  Precipitazioni Forti  Vento > 20 kt
SIGMETs :   Varie  Temporali  Ghiacco  Turbolenza  Onda orograficha  Ceneri Vulcaniche






- Altitudine del aeroporto : 17 ft
- Codice IATA : DND


EGPN - Dundee

ULTIMO METAR :
  • 241120Z 09016KT 6000 -RA FEW005 BKN009 03/02 Q0998

METARs OBSOLETI :
  • 241050Z 09013KT 7000 -RA FEW005 BKN009 03/02 Q0999
  • 241020Z 09012KT 6000 -RA FEW005 BKN009 03/03 Q1000
  • 240950Z 10014KT 8000 -RA FEW005 BKN009 03/02 Q1001
  • 240920Z 12013KT 9000 -RA FEW007 BKN010 03/02 Q1003
  • 240850Z 12011KT 9999 -RA FEW008 BKN011 03/02 Q1003
  • 240820Z 12011KT 9999 -RA FEW008 BKN012 04/02 Q1005

TAF TAF EGPN
Valido dal 24 a 09 ore il 24 a 18 ore UTC


240800Z 2409/2418 14014KT 9999 SCT010
TEMPO 2409/2418 4000 RA RADZ BKN007
PROB30
TEMPO 2409/2414 09020G30KT 1200 RASN BKN004
BECMG 2414/2417 30008KT



MetMap, La meteo Aeronautica in un colpo d'occhio ! - Copyright ORBIFLY Dicembre 2007 - Disclaimer

ORBIFLY MET'MAP TEAM :

Programmazione e sviluppo : Alexandra Zaïnal
Concezione : Baudouin d'Aumeries
Aiuto per la programmazione : Marc-Olivier Méhu
Supporto tecnico e logistico : Manuel Goepfert
Aiuto per la traduzione : Arnaldo La Scala

Contatto : metmap@orbifly.com




FONTI E CREDITI :

   NOAA